地図

経路データ

SID SEASON NUMBER BASIN SUBBASIN NAME ISO_TIME NATURE LAT LON WMO_WIND WMO_PRES WMO_AGENCY TRACK_TYPE DIST2LAND LANDFALL IFLAG USA_AGENCY USA_ATCF_ID USA_LAT USA_LON USA_RECORD USA_STATUS USA_WIND USA_PRES USA_SSHS USA_R34_NE USA_R34_SE USA_R34_SW USA_R34_NW USA_R50_NE USA_R50_SE USA_R50_SW USA_R50_NW USA_R64_NE USA_R64_SE USA_R64_SW USA_R64_NW USA_POCI USA_ROCI USA_RMW USA_EYE TOKYO_LAT TOKYO_LON TOKYO_GRADE TOKYO_WIND TOKYO_PRES TOKYO_R50_DIR TOKYO_R50_LONG TOKYO_R50_SHORT TOKYO_R30_DIR TOKYO_R30_LONG TOKYO_R30_SHORT TOKYO_LAND CMA_LAT CMA_LON CMA_CAT CMA_WIND CMA_PRES HKO_LAT HKO_LON HKO_CAT HKO_WIND HKO_PRES NEWDELHI_LAT NEWDELHI_LON NEWDELHI_GRADE NEWDELHI_WIND NEWDELHI_PRES NEWDELHI_CI NEWDELHI_DP NEWDELHI_POCI REUNION_LAT REUNION_LON REUNION_TYPE REUNION_WIND REUNION_PRES REUNION_TNUM REUNION_CI REUNION_RMW REUNION_R34_NE REUNION_R34_SE REUNION_R34_SW REUNION_R34_NW REUNION_R50_NE REUNION_R50_SE REUNION_R50_SW REUNION_R50_NW REUNION_R64_NE REUNION_R64_SE REUNION_R64_SW REUNION_R64_NW BOM_LAT BOM_LON BOM_TYPE BOM_WIND BOM_PRES BOM_TNUM BOM_CI BOM_RMW BOM_R34_NE BOM_R34_SE BOM_R34_SW BOM_R34_NW BOM_R50_NE BOM_R50_SE BOM_R50_SW BOM_R50_NW BOM_R64_NE BOM_R64_SE BOM_R64_SW BOM_R64_NW BOM_ROCI BOM_POCI BOM_EYE BOM_POS_METHOD BOM_PRES_METHOD NADI_LAT NADI_LON NADI_CAT NADI_WIND NADI_PRES WELLINGTON_LAT WELLINGTON_LON WELLINGTON_WIND WELLINGTON_PRES DS824_LAT DS824_LON DS824_STAGE DS824_WIND DS824_PRES TD9636_LAT TD9636_LON TD9636_STAGE TD9636_WIND TD9636_PRES TD9635_LAT TD9635_LON TD9635_WIND TD9635_PRES TD9635_ROCI NEUMANN_LAT NEUMANN_LON NEUMANN_CLASS NEUMANN_WIND NEUMANN_PRES MLC_LAT MLC_LON MLC_CLASS MLC_WIND MLC_PRES USA_GUST BOM_GUST BOM_GUST_PER REUNION_GUST REUNION_GUST_PER USA_SEAHGT USA_SEARAD_NE USA_SEARAD_SE USA_SEARAD_SW USA_SEARAD_NW STORM_SPEED STORM_DIR
1989086S08081 1989 25 SI MM KRISY 1989-03-26 12:00:00 TS -8.00000 80.6000 spur-merge 1557 1557 O_________O_O_ jtwc_sh SH211989 -8.00000 80.6000 20 -1 -8.00000 80.6000 1 20 -8.00000 80.6000 TC 20 6 270
1989086S08081 1989 25 SI MM KRISY 1989-03-26 15:00:00 TS -8.00067 80.3047 spur-merge 1557 1557 P_________P_P_ SH211989 -7.97752 80.3125 20 -1 -8.04697 80.2891 1 20 -7.97752 80.3125 TC 20 6 267
1989086S08081 1989 25 SI MM KRISY 1989-03-26 18:00:00 TS -8.03169 79.9909 spur-merge 1559 1559 O_________P_O_ jtwc_sh SH211989 -8.00000 80.0000 20 -1 -8.09507 79.9726 1 20 -8.00000 80.0000 TC 20 7 260
1989086S08081 1989 25 SI MM KRISY 1989-03-26 21:00:00 TS -8.11022 79.6483 spur-merge 1572 1572 P_________P_P_ SH211989 -8.09251 79.6500 20 -1 -8.14564 79.6447 1 20 -8.09251 79.6500 TC 20 7 256
1989086S08081 1989 25 SI MM KRISY 1989-03-27 00:00:00 TS -8.20000 79.3000 spur-merge 1586 1586 O_________O_O_ jtwc_sh SH211989 -8.20000 79.3000 20 -1 -8.20000 79.3000 1 20 -8.20000 79.3000 TC 20 7 258
1989086S08081 1989 25 SI MM KRISY 1989-03-27 03:00:00 TS -8.24872 78.9839 spur-merge 1589 1589 P_________P_P_ SH211989 -8.24242 79.0074 20 -1 -8.26130 78.9368 1 20 -8.24242 79.0074 TC 20 6 260
1989086S08081 1989 25 SI MM KRISY 1989-03-27 06:00:00 TS -8.31336 78.6566 spur-merge 1605 1605 O_________P_O_ jtwc_sh SH211989 -8.30000 78.7000 20 -1 -8.34009 78.5699 1 20 -8.30000 78.7000 TC 20 7 256
1989086S08081 1989 25 SI MM KRISY 1989-03-27 09:00:00 TS -8.42966 78.2627 spur-merge 1622 1622 P_________P_P_ SH211989 -8.42008 78.2850 20 -1 -8.44882 78.2180 1 20 -8.42008 78.2850 TC 20 8 249
1989086S08081 1989 25 SI MM KRISY 1989-03-27 12:00:00 TS -8.60000 77.9000 spur-merge 1652 1652 O_________O_O_ jtwc_sh SH211989 -8.60000 77.9000 20 -1 -8.60000 77.9000 1 20 -8.60000 77.9000 TC 20 7 235
1989086S08081 1989 25 SI MM KRISY 1989-03-27 15:00:00 TS -8.83628 77.6768 spur-merge 1678 1678 P_________P_P_ SH211989 -8.83491 77.6774 20 -1 -8.83901 77.6756 1 20 -8.83491 77.6774 TC 20 6 219
1989086S08081 1989 25 SI MM KRISY 1989-03-27 18:00:00 TS -9.10482 77.4933 spur-merge 1715 1715 O_________P_O_ jtwc_sh SH211989 -9.10000 77.5000 20 -1 -9.11445 77.4800 1 20 -9.10000 77.5000 TC 20 7 216
1989086S08081 1989 25 SI MM KRISY 1989-03-27 21:00:00 TS -9.36584 77.2814 spur-merge 1753 1753 P_________P_P_ SH211989 -9.35742 77.2874 20 -1 -9.38270 77.2694 1 20 -9.35742 77.2874 TC 20 7 225
1989086S08081 1989 25 SI MM KRISY 1989-03-28 00:00:00 TS -9.60000 77.0000 spur-merge 1782 1782 O_________O_O_ jtwc_sh SH211989 -9.60000 77.0000 20 -1 -9.60000 77.0000 1 20 -9.60000 77.0000 TC 20 8 237
1989086S08081 1989 25 SI MM KRISY 1989-03-28 03:00:00 TS -9.80837 76.5835 spur-merge 1814 1814 P_________P_P_ SH211989 -9.85254 76.5802 20 -1 -9.72004 76.5902 1 21 -9.85254 76.5802 TC 20 9 250
1989086S08081 1989 25 SI MM KRISY 1989-03-28 06:00:00 TS -9.92767 76.1075 spur-merge 1839 1839 O_________P_O_ jtwc_sh SH211989 -10.0000 76.1000 20 -1 -9.78302 76.1224 1 22 -10.0000 76.1000 TC 20 9 265
1989086S08081 1989 25 SI MM KRISY 1989-03-28 09:00:00 TS -9.89817 75.6277 spur-merge 1855 1851 P_________P_P_ SH211989 -9.94504 75.6198 22 -1 -9.80442 75.6433 1 23 -9.94504 75.6198 TC 22 9 278
1989086S08081 1989 25 SI MM KRISY 1989-03-28 12:00:00 TS -9.80000 75.2000 spur-merge 1858 1854 O_________O_O_ jtwc_sh SH211989 -9.80000 75.2000 25 -1 -9.80000 75.2000 1 25 -9.80000 75.2000 TC 25 7 285
1989086S08081 1989 25 SI MM KRISY 1989-03-28 15:00:00 TS -9.70351 74.8967 spur-merge 1858 1855 P_________P_P_ SH211989 -9.67736 74.9350 25 -1 -9.75580 74.8201 1 25 -9.67736 74.9350 TC 25 6 287
1989086S08081 1989 25 SI MM KRISY 1989-03-28 18:00:00 TS -9.63246 74.6291 spur-merge 1858 1858 O_________P_O_ jtwc_sh SH211989 -9.60000 74.7000 25 -1 -9.69737 74.4872 1 25 -9.60000 74.7000 TC 25 6 278
1989086S08081 1989 25 SI MM KRISY 1989-03-28 21:00:00 TS -9.62513 74.2986 spur-merge 1870 1870 P_________P_P_ SH211989 -9.60506 74.3425 25 -1 -9.66525 74.2108 1 25 -9.60506 74.3425 TC 25 6 264
1989086S08081 1989 25 SI MM KRISY 1989-03-29 00:00:00 TS -9.70000 74.0000 spur-merge 1892 1892 O_________O_O_ jtwc_sh SH211989 -9.70000 74.0000 25 -1 -9.70000 74.0000 1 25 -9.70000 74.0000 TC 25 6 245
1989086S08081 1989 25 SI MM KRISY 1989-03-29 03:00:00 TS -9.86159 73.7815 spur-merge 1921 1921 P_________P_P_ SH211989 -9.86997 73.7401 25 -1 -9.83094 73.8595 1 26 -9.86997 73.7401 TC 25 5 220
1989086S08081 1989 25 SI MM KRISY 1989-03-29 06:00:00 TS -10.0866 73.6633 spur-merge 1946 1946 O_________P_O_ jtwc_sh SH211989 -10.1000 73.6000 25 -1 -10.0425 73.7751 1 27 -10.1000 73.6000 TC 25 5 193
1989086S08081 1989 25 SI MM KRISY 1989-03-29 09:00:00 TS -10.3244 73.6747 spur-merge 1967 1967 P_________P_P_ SH211989 -10.3475 73.6074 27 -1 -10.3078 73.7282 1 28 -10.3475 73.6074 TC 27 5 177
1989086S08081 1989 25 SI MM KRISY 1989-03-29 12:00:00 TS -10.6000 73.7000 spur-merge 1998 1998 O_________O_O_ jtwc_sh SH211989 -10.6000 73.7000 30 -1 -10.6000 73.7000 1 30 -10.6000 73.7000 TC 30 6 181
1989086S08081 1989 25 SI MM KRISY 1989-03-29 15:00:00 TS -10.9192 73.6477 spur-merge 1988 1961 ______________ SH211989 -1 1 TC 6 197
1989086S08081 1989 25 SI MM KRISY 1989-03-29 18:00:00 NR -11.1725 73.5225 spur-merge 1961 ______________ -1 1 6 206

IBTrACS Databaseについて

本データベースは、米国NOAAが公開する1842年以降の世界の熱帯低気圧のベストトラックデータアーカイブInternational Best Track Archive for Climate Stewardship (IBTrACS)を、ウェブで閲覧しやすい形式に変換したものです。

最終更新日:2021-12-03